sensor_id;sensor_type;location;lat;lon;timestamp;P1;durP1;ratioP1;P2;durP2;ratioP2
6207;SDS011;3137;51.550;7.060;2022-10-15T00:00:35;10.77;;;9.77;;
6207;SDS011;3137;51.550;7.060;2022-10-15T00:03:02;12.10;;;11.17;;
6207;SDS011;3137;51.550;7.060;2022-10-15T00:05:28;16.23;;;13.67;;
6207;SDS011;3137;51.550;7.060;2022-10-15T00:07:54;14.33;;;12.93;;
6207;SDS011;3137;51.550;7.060;2022-10-15T00:10:21;13.83;;;12.47;;
6207;SDS011;3137;51.550;7.060;2022-10-15T00:12:48;13.33;;;12.07;;
6207;SDS011;3137;51.550;7.060;2022-10-15T00:15:15;12.83;;;11.73;;
6207;SDS011;3137;51.550;7.060;2022-10-15T00:17:41;13.77;;;12.53;;
6207;SDS011;3137;51.550;7.060;2022-10-15T00:20:08;14.00;;;12.70;;
6207;SDS011;3137;51.550;7.060;2022-10-15T00:22:35;15.17;;;13.10;;
6207;SDS011;3137;51.550;7.060;2022-10-15T00:25:02;13.00;;;12.00;;
6207;SDS011;3137;51.550;7.060;2022-10-15T00:27:29;13.80;;;12.57;;
6207;SDS011;3137;51.550;7.060;2022-10-15T00:29:56;13.37;;;12.27;;
6207;SDS011;3137;51.550;7.060;2022-10-15T00:32:25;16.20;;;12.73;;
6207;SDS011;3137;51.550;7.060;2022-10-15T00:34:51;12.50;;;11.40;;
6207;SDS011;3137;51.550;7.060;2022-10-15T00:37:18;12.43;;;11.43;;
6207;SDS011;3137;51.550;7.060;2022-10-15T00:39:46;17.50;;;11.03;;
6207;SDS011;3137;51.550;7.060;2022-10-15T00:42:12;13.40;;;12.00;;
6207;SDS011;3137;51.550;7.060;2022-10-15T00:44:46;13.83;;;11.00;;
6207;SDS011;3137;51.550;7.060;2022-10-15T00:47:15;12.80;;;11.83;;
6207;SDS011;3137;51.550;7.060;2022-10-15T00:49:47;11.70;;;11.00;;
6207;SDS011;3137;51.550;7.060;2022-10-15T00:52:41;11.97;;;11.07;;
6207;SDS011;3137;51.550;7.060;2022-10-15T00:55:10;13.63;;;12.43;;
6207;SDS011;3137;51.550;7.060;2022-10-15T00:57:38;11.50;;;10.53;;
6207;SDS011;3137;51.550;7.060;2022-10-15T01:00:08;12.93;;;11.67;;
6207;SDS011;3137;51.550;7.060;2022-10-15T01:02:37;12.60;;;11.57;;
6207;SDS011;3137;51.550;7.060;2022-10-15T01:05:04;12.00;;;11.07;;
6207;SDS011;3137;51.550;7.060;2022-10-15T01:07:30;18.23;;;13.30;;
6207;SDS011;3137;51.550;7.060;2022-10-15T01:09:57;15.23;;;13.63;;
6207;SDS011;3137;51.550;7.060;2022-10-15T01:15:11;14.93;;;13.40;;
6207;SDS011;3137;51.550;7.060;2022-10-15T01:18:02;13.13;;;12.07;;
6207;SDS011;3137;51.550;7.060;2022-10-15T01:23:49;15.33;;;13.30;;
6207;SDS011;3137;51.550;7.060;2022-10-15T01:29:33;15.13;;;13.20;;
6207;SDS011;3137;51.550;7.060;2022-10-15T01:32:26;16.13;;;14.47;;
6207;SDS011;3137;51.550;7.060;2022-10-15T01:37:43;19.57;;;14.03;;
6207;SDS011;3137;51.550;7.060;2022-10-15T01:40:30;18.00;;;15.33;;
6207;SDS011;3137;51.550;7.060;2022-10-15T01:43:06;15.03;;;13.47;;
6207;SDS011;3137;51.550;7.060;2022-10-15T01:45:48;25.70;;;15.97;;
6207;SDS011;3137;51.550;7.060;2022-10-15T01:48:34;27.23;;;17.03;;
6207;SDS011;3137;51.550;7.060;2022-10-15T01:51:03;35.87;;;16.80;;
6207;SDS011;3137;51.550;7.060;2022-10-15T01:53:32;28.37;;;17.57;;
6207;SDS011;3137;51.550;7.060;2022-10-15T01:56:06;63.00;;;24.10;;
6207;SDS011;3137;51.550;7.060;2022-10-15T01:58:35;61.23;;;24.63;;
6207;SDS011;3137;51.550;7.060;2022-10-15T02:01:03;63.47;;;23.67;;
6207;SDS011;3137;51.550;7.060;2022-10-15T02:03:41;59.70;;;22.10;;
6207;SDS011;3137;51.550;7.060;2022-10-15T02:06:14;53.90;;;21.80;;
6207;SDS011;3137;51.550;7.060;2022-10-15T02:11:51;43.83;;;22.03;;
6207;SDS011;3137;51.550;7.060;2022-10-15T02:14:25;52.97;;;21.97;;
6207;SDS011;3137;51.550;7.060;2022-10-15T02:17:01;56.00;;;22.10;;
6207;SDS011;3137;51.550;7.060;2022-10-15T02:19:44;83.23;;;25.93;;
6207;SDS011;3137;51.550;7.060;2022-10-15T02:22:16;90.97;;;28.40;;
6207;SDS011;3137;51.550;7.060;2022-10-15T02:27:27;89.63;;;31.23;;
6207;SDS011;3137;51.550;7.060;2022-10-15T02:29:57;91.23;;;30.27;;
6207;SDS011;3137;51.550;7.060;2022-10-15T02:32:25;88.60;;;30.57;;
6207;SDS011;3137;51.550;7.060;2022-10-15T02:34:54;92.30;;;31.83;;
6207;SDS011;3137;51.550;7.060;2022-10-15T02:37:21;92.03;;;30.97;;
6207;SDS011;3137;51.550;7.060;2022-10-15T02:39:50;89.13;;;30.30;;
6207;SDS011;3137;51.550;7.060;2022-10-15T02:42:17;81.03;;;28.63;;
6207;SDS011;3137;51.550;7.060;2022-10-15T02:44:46;72.37;;;26.80;;
6207;SDS011;3137;51.550;7.060;2022-10-15T02:47:12;62.80;;;25.47;;
6207;SDS011;3137;51.550;7.060;2022-10-15T02:49:39;62.20;;;25.77;;
6207;SDS011;3137;51.550;7.060;2022-10-15T02:52:06;69.43;;;26.67;;
6207;SDS011;3137;51.550;7.060;2022-10-15T02:54:32;62.00;;;23.27;;
6207;SDS011;3137;51.550;7.060;2022-10-15T02:56:59;56.27;;;23.00;;
6207;SDS011;3137;51.550;7.060;2022-10-15T02:59:25;44.30;;;22.83;;
6207;SDS011;3137;51.550;7.060;2022-10-15T03:01:53;37.40;;;20.77;;
6207;SDS011;3137;51.550;7.060;2022-10-15T03:04:20;32.53;;;19.90;;
6207;SDS011;3137;51.550;7.060;2022-10-15T03:06:46;30.97;;;20.53;;
6207;SDS011;3137;51.550;7.060;2022-10-15T03:09:13;30.20;;;17.60;;
6207;SDS011;3137;51.550;7.060;2022-10-15T03:11:39;26.57;;;17.53;;
6207;SDS011;3137;51.550;7.060;2022-10-15T03:14:05;27.63;;;17.47;;
6207;SDS011;3137;51.550;7.060;2022-10-15T03:16:33;28.60;;;19.03;;
6207;SDS011;3137;51.550;7.060;2022-10-15T03:18:59;38.60;;;19.10;;
6207;SDS011;3137;51.550;7.060;2022-10-15T03:21:26;29.43;;;18.50;;
6207;SDS011;3137;51.550;7.060;2022-10-15T03:24:01;33.47;;;19.47;;
6207;SDS011;3137;51.550;7.060;2022-10-15T03:26:28;34.63;;;19.67;;
6207;SDS011;3137;51.550;7.060;2022-10-15T03:28:54;23.97;;;17.17;;
6207;SDS011;3137;51.550;7.060;2022-10-15T03:31:32;29.40;;;18.47;;
6207;SDS011;3137;51.550;7.060;2022-10-15T03:34:00;28.73;;;18.33;;
6207;SDS011;3137;51.550;7.060;2022-10-15T03:36:27;26.97;;;17.97;;
6207;SDS011;3137;51.550;7.060;2022-10-15T03:38:53;30.00;;;18.60;;
6207;SDS011;3137;51.550;7.060;2022-10-15T03:41:20;36.00;;;19.60;;
6207;SDS011;3137;51.550;7.060;2022-10-15T03:43:47;31.47;;;18.97;;
6207;SDS011;3137;51.550;7.060;2022-10-15T03:46:14;26.80;;;17.47;;
6207;SDS011;3137;51.550;7.060;2022-10-15T03:48:47;27.43;;;18.40;;
6207;SDS011;3137;51.550;7.060;2022-10-15T03:51:14;25.07;;;17.17;;
6207;SDS011;3137;51.550;7.060;2022-10-15T03:53:50;22.63;;;17.47;;
6207;SDS011;3137;51.550;7.060;2022-10-15T03:56:16;29.10;;;18.53;;
6207;SDS011;3137;51.550;7.060;2022-10-15T03:58:42;24.17;;;17.50;;
6207;SDS011;3137;51.550;7.060;2022-10-15T04:01:13;29.97;;;19.17;;
6207;SDS011;3137;51.550;7.060;2022-10-15T04:03:41;28.67;;;19.47;;
6207;SDS011;3137;51.550;7.060;2022-10-15T04:06:08;30.73;;;20.47;;
6207;SDS011;3137;51.550;7.060;2022-10-15T04:08:35;28.00;;;19.73;;
6207;SDS011;3137;51.550;7.060;2022-10-15T04:11:16;27.33;;;18.57;;
6207;SDS011;3137;51.550;7.060;2022-10-15T04:13:43;28.83;;;19.70;;
6207;SDS011;3137;51.550;7.060;2022-10-15T04:16:13;31.87;;;18.87;;
6207;SDS011;3137;51.550;7.060;2022-10-15T04:18:39;30.90;;;18.80;;
6207;SDS011;3137;51.550;7.060;2022-10-15T04:21:05;26.43;;;18.13;;
6207;SDS011;3137;51.550;7.060;2022-10-15T04:23:32;24.70;;;17.07;;
6207;SDS011;3137;51.550;7.060;2022-10-15T04:26:25;25.57;;;18.87;;
6207;SDS011;3137;51.550;7.060;2022-10-15T04:28:51;23.03;;;17.13;;
6207;SDS011;3137;51.550;7.060;2022-10-15T04:31:20;23.77;;;18.27;;
6207;SDS011;3137;51.550;7.060;2022-10-15T04:33:48;22.17;;;17.73;;
6207;SDS011;3137;51.550;7.060;2022-10-15T04:36:14;25.30;;;18.80;;
6207;SDS011;3137;51.550;7.060;2022-10-15T04:38:57;27.87;;;18.50;;
6207;SDS011;3137;51.550;7.060;2022-10-15T04:41:31;21.90;;;16.60;;
6207;SDS011;3137;51.550;7.060;2022-10-15T04:44:02;24.17;;;18.40;;
6207;SDS011;3137;51.550;7.060;2022-10-15T04:46:30;27.87;;;18.57;;
6207;SDS011;3137;51.550;7.060;2022-10-15T04:49:00;26.57;;;19.60;;
6207;SDS011;3137;51.550;7.060;2022-10-15T04:51:27;26.23;;;19.43;;
6207;SDS011;3137;51.550;7.060;2022-10-15T04:54:00;24.03;;;18.87;;
6207;SDS011;3137;51.550;7.060;2022-10-15T04:56:28;24.20;;;18.27;;
6207;SDS011;3137;51.550;7.060;2022-10-15T04:58:55;28.10;;;19.43;;
6207;SDS011;3137;51.550;7.060;2022-10-15T05:01:24;25.13;;;18.77;;
6207;SDS011;3137;51.550;7.060;2022-10-15T05:03:59;21.10;;;18.40;;
6207;SDS011;3137;51.550;7.060;2022-10-15T05:06:26;26.83;;;18.80;;
6207;SDS011;3137;51.550;7.060;2022-10-15T05:08:57;30.63;;;22.07;;
6207;SDS011;3137;51.550;7.060;2022-10-15T05:11:27;36.43;;;22.80;;
6207;SDS011;3137;51.550;7.060;2022-10-15T05:13:56;30.97;;;20.77;;
6207;SDS011;3137;51.550;7.060;2022-10-15T05:16:24;29.77;;;20.13;;
6207;SDS011;3137;51.550;7.060;2022-10-15T05:18:54;37.13;;;22.17;;
6207;SDS011;3137;51.550;7.060;2022-10-15T05:21:22;31.93;;;22.17;;
6207;SDS011;3137;51.550;7.060;2022-10-15T05:23:53;37.20;;;21.60;;
6207;SDS011;3137;51.550;7.060;2022-10-15T05:26:39;32.97;;;21.63;;
6207;SDS011;3137;51.550;7.060;2022-10-15T05:29:06;27.43;;;19.17;;
6207;SDS011;3137;51.550;7.060;2022-10-15T05:31:32;33.60;;;20.83;;
6207;SDS011;3137;51.550;7.060;2022-10-15T05:34:07;29.83;;;18.40;;
6207;SDS011;3137;51.550;7.060;2022-10-15T05:36:42;24.70;;;18.47;;
6207;SDS011;3137;51.550;7.060;2022-10-15T05:39:08;33.40;;;21.73;;
6207;SDS011;3137;51.550;7.060;2022-10-15T05:41:42;25.43;;;18.67;;
6207;SDS011;3137;51.550;7.060;2022-10-15T05:44:08;28.33;;;19.47;;
6207;SDS011;3137;51.550;7.060;2022-10-15T05:46:35;23.90;;;17.57;;
6207;SDS011;3137;51.550;7.060;2022-10-15T05:49:02;30.70;;;17.87;;
6207;SDS011;3137;51.550;7.060;2022-10-15T05:51:38;30.57;;;19.63;;
6207;SDS011;3137;51.550;7.060;2022-10-15T05:54:09;26.33;;;19.90;;
6207;SDS011;3137;51.550;7.060;2022-10-15T05:56:36;27.07;;;18.63;;
6207;SDS011;3137;51.550;7.060;2022-10-15T05:59:03;21.40;;;16.40;;
6207;SDS011;3137;51.550;7.060;2022-10-15T06:01:29;27.97;;;20.47;;
6207;SDS011;3137;51.550;7.060;2022-10-15T06:03:56;27.27;;;17.87;;
6207;SDS011;3137;51.550;7.060;2022-10-15T06:06:24;27.23;;;18.23;;
6207;SDS011;3137;51.550;7.060;2022-10-15T06:08:52;22.20;;;18.03;;
6207;SDS011;3137;51.550;7.060;2022-10-15T06:11:19;24.33;;;17.13;;
6207;SDS011;3137;51.550;7.060;2022-10-15T06:13:46;23.73;;;17.33;;
6207;SDS011;3137;51.550;7.060;2022-10-15T06:16:13;22.87;;;17.53;;
6207;SDS011;3137;51.550;7.060;2022-10-15T06:18:46;26.73;;;18.33;;
6207;SDS011;3137;51.550;7.060;2022-10-15T06:21:12;25.73;;;17.73;;
6207;SDS011;3137;51.550;7.060;2022-10-15T06:23:39;30.43;;;20.00;;
6207;SDS011;3137;51.550;7.060;2022-10-15T06:26:06;31.13;;;19.73;;
6207;SDS011;3137;51.550;7.060;2022-10-15T06:28:32;27.70;;;18.60;;
6207;SDS011;3137;51.550;7.060;2022-10-15T06:30:59;33.43;;;19.20;;
6207;SDS011;3137;51.550;7.060;2022-10-15T06:33:28;31.80;;;21.93;;
6207;SDS011;3137;51.550;7.060;2022-10-15T06:35:59;30.37;;;20.53;;
6207;SDS011;3137;51.550;7.060;2022-10-15T06:38:27;33.70;;;21.33;;
6207;SDS011;3137;51.550;7.060;2022-10-15T06:40:53;25.47;;;18.43;;
6207;SDS011;3137;51.550;7.060;2022-10-15T06:43:19;29.33;;;20.57;;
6207;SDS011;3137;51.550;7.060;2022-10-15T06:45:45;35.77;;;20.83;;
6207;SDS011;3137;51.550;7.060;2022-10-15T06:48:15;26.50;;;19.33;;
6207;SDS011;3137;51.550;7.060;2022-10-15T06:50:41;31.83;;;19.90;;
6207;SDS011;3137;51.550;7.060;2022-10-15T06:53:08;27.57;;;18.83;;
6207;SDS011;3137;51.550;7.060;2022-10-15T06:55:34;22.10;;;18.43;;
6207;SDS011;3137;51.550;7.060;2022-10-15T06:58:01;33.43;;;20.47;;
6207;SDS011;3137;51.550;7.060;2022-10-15T07:00:27;34.30;;;20.07;;
6207;SDS011;3137;51.550;7.060;2022-10-15T07:02:54;36.27;;;21.90;;
6207;SDS011;3137;51.550;7.060;2022-10-15T07:05:20;39.07;;;21.03;;
6207;SDS011;3137;51.550;7.060;2022-10-15T07:07:50;29.70;;;19.43;;
6207;SDS011;3137;51.550;7.060;2022-10-15T07:10:18;26.80;;;17.93;;
6207;SDS011;3137;51.550;7.060;2022-10-15T07:12:50;21.43;;;17.47;;
6207;SDS011;3137;51.550;7.060;2022-10-15T07:15:16;32.10;;;17.73;;
6207;SDS011;3137;51.550;7.060;2022-10-15T07:17:47;24.93;;;17.47;;
6207;SDS011;3137;51.550;7.060;2022-10-15T07:20:14;26.77;;;18.73;;
6207;SDS011;3137;51.550;7.060;2022-10-15T07:22:46;29.97;;;19.23;;
6207;SDS011;3137;51.550;7.060;2022-10-15T07:25:14;29.97;;;17.50;;
6207;SDS011;3137;51.550;7.060;2022-10-15T07:27:40;27.00;;;16.37;;
6207;SDS011;3137;51.550;7.060;2022-10-15T07:30:07;23.83;;;16.83;;
6207;SDS011;3137;51.550;7.060;2022-10-15T07:32:34;28.90;;;17.80;;
6207;SDS011;3137;51.550;7.060;2022-10-15T07:35:00;23.97;;;17.00;;
6207;SDS011;3137;51.550;7.060;2022-10-15T07:37:27;19.73;;;15.57;;
6207;SDS011;3137;51.550;7.060;2022-10-15T07:39:53;24.70;;;15.97;;
6207;SDS011;3137;51.550;7.060;2022-10-15T07:42:20;21.90;;;15.63;;
6207;SDS011;3137;51.550;7.060;2022-10-15T07:44:47;17.70;;;15.07;;
6207;SDS011;3137;51.550;7.060;2022-10-15T07:47:14;24.30;;;16.03;;
6207;SDS011;3137;51.550;7.060;2022-10-15T07:49:40;20.77;;;14.20;;
6207;SDS011;3137;51.550;7.060;2022-10-15T07:52:07;24.20;;;15.80;;
6207;SDS011;3137;51.550;7.060;2022-10-15T07:54:33;23.60;;;14.53;;
6207;SDS011;3137;51.550;7.060;2022-10-15T07:57:00;17.97;;;14.83;;
6207;SDS011;3137;51.550;7.060;2022-10-15T07:59:27;22.33;;;14.43;;
6207;SDS011;3137;51.550;7.060;2022-10-15T08:01:53;22.60;;;15.57;;
6207;SDS011;3137;51.550;7.060;2022-10-15T08:04:20;19.97;;;14.33;;
6207;SDS011;3137;51.550;7.060;2022-10-15T08:06:47;18.17;;;14.53;;
6207;SDS011;3137;51.550;7.060;2022-10-15T08:09:14;19.43;;;13.47;;
6207;SDS011;3137;51.550;7.060;2022-10-15T08:11:41;29.73;;;15.47;;
6207;SDS011;3137;51.550;7.060;2022-10-15T08:14:08;22.33;;;15.40;;
6207;SDS011;3137;51.550;7.060;2022-10-15T08:16:34;20.87;;;13.97;;
6207;SDS011;3137;51.550;7.060;2022-10-15T08:19:01;26.07;;;14.27;;
6207;SDS011;3137;51.550;7.060;2022-10-15T08:21:27;25.50;;;16.10;;
6207;SDS011;3137;51.550;7.060;2022-10-15T08:23:53;26.13;;;15.43;;
6207;SDS011;3137;51.550;7.060;2022-10-15T08:26:28;23.00;;;15.00;;
6207;SDS011;3137;51.550;7.060;2022-10-15T08:28:54;14.67;;;13.17;;
6207;SDS011;3137;51.550;7.060;2022-10-15T08:31:21;18.83;;;14.67;;
6207;SDS011;3137;51.550;7.060;2022-10-15T08:33:47;17.47;;;13.33;;
6207;SDS011;3137;51.550;7.060;2022-10-15T08:36:15;15.17;;;13.60;;
6207;SDS011;3137;51.550;7.060;2022-10-15T08:38:43;16.67;;;12.43;;
6207;SDS011;3137;51.550;7.060;2022-10-15T08:41:22;13.70;;;12.40;;
6207;SDS011;3137;51.550;7.060;2022-10-15T08:43:58;12.33;;;11.03;;
6207;SDS011;3137;51.550;7.060;2022-10-15T08:46:28;12.13;;;11.17;;
6207;SDS011;3137;51.550;7.060;2022-10-15T08:49:00;10.27;;;9.63;;
6207;SDS011;3137;51.550;7.060;2022-10-15T08:51:30;19.97;;;10.93;;
6207;SDS011;3137;51.550;7.060;2022-10-15T08:54:12;10.13;;;9.53;;
6207;SDS011;3137;51.550;7.060;2022-10-15T08:56:46;9.63;;;8.73;;
6207;SDS011;3137;51.550;7.060;2022-10-15T08:59:34;9.50;;;8.73;;
6207;SDS011;3137;51.550;7.060;2022-10-15T09:02:15;9.63;;;8.93;;
6207;SDS011;3137;51.550;7.060;2022-10-15T09:05:02;8.93;;;8.37;;
6207;SDS011;3137;51.550;7.060;2022-10-15T09:07:48;8.33;;;8.00;;
6207;SDS011;3137;51.550;7.060;2022-10-15T09:10:29;7.17;;;6.97;;
6207;SDS011;3137;51.550;7.060;2022-10-15T09:13:02;7.60;;;7.00;;
6207;SDS011;3137;51.550;7.060;2022-10-15T09:15:31;5.03;;;4.93;;
6207;SDS011;3137;51.550;7.060;2022-10-15T09:18:19;5.30;;;5.20;;
6207;SDS011;3137;51.550;7.060;2022-10-15T09:20:48;5.60;;;5.47;;
6207;SDS011;3137;51.550;7.060;2022-10-15T09:23:22;5.03;;;4.93;;
6207;SDS011;3137;51.550;7.060;2022-10-15T09:25:54;4.10;;;3.97;;
6207;SDS011;3137;51.550;7.060;2022-10-15T09:28:31;3.97;;;3.97;;
6207;SDS011;3137;51.550;7.060;2022-10-15T09:31:07;3.50;;;3.50;;
6207;SDS011;3137;51.550;7.060;2022-10-15T09:33:51;3.67;;;3.60;;
6207;SDS011;3137;51.550;7.060;2022-10-15T09:41:53;2.47;;;2.47;;
6207;SDS011;3137;51.550;7.060;2022-10-15T09:44:23;2.27;;;1.97;;
6207;SDS011;3137;51.550;7.060;2022-10-15T09:46:52;2.30;;;2.30;;
6207;SDS011;3137;51.550;7.060;2022-10-15T09:49:20;1.90;;;1.80;;
6207;SDS011;3137;51.550;7.060;2022-10-15T09:52:03;2.10;;;2.10;;
6207;SDS011;3137;51.550;7.060;2022-10-15T09:54:40;2.30;;;1.90;;
6207;SDS011;3137;51.550;7.060;2022-10-15T09:57:12;2.17;;;2.00;;
6207;SDS011;3137;51.550;7.060;2022-10-15T09:59:51;2.27;;;2.27;;
6207;SDS011;3137;51.550;7.060;2022-10-15T10:02:23;1.73;;;1.73;;
6207;SDS011;3137;51.550;7.060;2022-10-15T10:04:51;1.70;;;1.70;;
6207;SDS011;3137;51.550;7.060;2022-10-15T10:09:57;1.73;;;1.73;;
6207;SDS011;3137;51.550;7.060;2022-10-15T10:12:32;1.47;;;1.47;;
6207;SDS011;3137;51.550;7.060;2022-10-15T10:15:02;1.20;;;1.20;;
6207;SDS011;3137;51.550;7.060;2022-10-15T10:17:29;1.40;;;1.40;;
6207;SDS011;3137;51.550;7.060;2022-10-15T10:20:08;1.50;;;1.50;;
6207;SDS011;3137;51.550;7.060;2022-10-15T10:27:52;1.33;;;1.33;;
6207;SDS011;3137;51.550;7.060;2022-10-15T10:30:21;1.33;;;1.33;;
6207;SDS011;3137;51.550;7.060;2022-10-15T10:32:48;1.50;;;1.50;;
6207;SDS011;3137;51.550;7.060;2022-10-15T10:35:23;1.57;;;1.57;;
6207;SDS011;3137;51.550;7.060;2022-10-15T10:37:52;5.00;;;1.27;;
6207;SDS011;3137;51.550;7.060;2022-10-15T10:40:28;1.80;;;1.80;;
6207;SDS011;3137;51.550;7.060;2022-10-15T10:45:51;1.00;;;1.00;;
6207;SDS011;3137;51.550;7.060;2022-10-15T10:48:50;1.20;;;1.20;;
6207;SDS011;3137;51.550;7.060;2022-10-15T10:51:21;1.30;;;1.30;;
6207;SDS011;3137;51.550;7.060;2022-10-15T10:53:59;1.20;;;1.20;;
6207;SDS011;3137;51.550;7.060;2022-10-15T10:56:30;1.10;;;1.10;;
6207;SDS011;3137;51.550;7.060;2022-10-15T11:01:47;1.50;;;1.50;;
6207;SDS011;3137;51.550;7.060;2022-10-15T11:04:19;1.20;;;1.20;;
6207;SDS011;3137;51.550;7.060;2022-10-15T11:12:00;1.20;;;1.20;;
6207;SDS011;3137;51.550;7.060;2022-10-15T11:20:19;1.03;;;1.03;;
6207;SDS011;3137;51.550;7.060;2022-10-15T11:28:34;1.30;;;1.30;;
6207;SDS011;3137;51.550;7.060;2022-10-15T11:36:28;0.90;;;0.90;;
6207;SDS011;3137;51.550;7.060;2022-10-15T11:39:13;1.20;;;1.20;;
6207;SDS011;3137;51.550;7.060;2022-10-15T11:44:37;1.00;;;1.00;;
6207;SDS011;3137;51.550;7.060;2022-10-15T11:49:49;1.73;;;1.30;;
6207;SDS011;3137;51.550;7.060;2022-10-15T11:52:49;1.30;;;1.30;;
6207;SDS011;3137;51.550;7.060;2022-10-15T11:55:51;1.10;;;1.10;;
6207;SDS011;3137;51.550;7.060;2022-10-15T11:58:29;1.13;;;1.13;;
6207;SDS011;3137;51.550;7.060;2022-10-15T12:01:08;1.20;;;1.20;;
6207;SDS011;3137;51.550;7.060;2022-10-15T12:03:38;1.23;;;1.23;;
6207;SDS011;3137;51.550;7.060;2022-10-15T12:06:15;1.30;;;1.30;;
6207;SDS011;3137;51.550;7.060;2022-10-15T12:08:44;1.20;;;1.20;;
6207;SDS011;3137;51.550;7.060;2022-10-15T12:16:42;1.50;;;1.50;;
6207;SDS011;3137;51.550;7.060;2022-10-15T12:19:12;1.20;;;1.20;;
6207;SDS011;3137;51.550;7.060;2022-10-15T12:21:44;1.10;;;1.10;;
6207;SDS011;3137;51.550;7.060;2022-10-15T12:29:52;1.20;;;1.20;;
6207;SDS011;3137;51.550;7.060;2022-10-15T12:32:38;1.27;;;1.27;;
6207;SDS011;3137;51.550;7.060;2022-10-15T12:37:39;1.40;;;1.40;;
6207;SDS011;3137;51.550;7.060;2022-10-15T12:42:54;1.13;;;1.13;;
6207;SDS011;3137;51.550;7.060;2022-10-15T12:45:32;1.60;;;1.60;;
6207;SDS011;3137;51.550;7.060;2022-10-15T12:48:16;1.57;;;1.57;;
6207;SDS011;3137;51.550;7.060;2022-10-15T12:50:44;1.60;;;1.60;;
6207;SDS011;3137;51.550;7.060;2022-10-15T13:03:37;1.70;;;1.70;;
6207;SDS011;3137;51.550;7.060;2022-10-15T13:11:35;2.27;;;2.07;;
6207;SDS011;3137;51.550;7.060;2022-10-15T13:14:16;1.40;;;1.40;;
6207;SDS011;3137;51.550;7.060;2022-10-15T13:16:53;1.50;;;1.40;;
6207;SDS011;3137;51.550;7.060;2022-10-15T13:19:22;1.30;;;1.30;;
6207;SDS011;3137;51.550;7.060;2022-10-15T13:21:52;2.53;;;1.20;;
6207;SDS011;3137;51.550;7.060;2022-10-15T13:24:27;1.37;;;1.37;;
6207;SDS011;3137;51.550;7.060;2022-10-15T13:26:55;1.37;;;1.37;;
6207;SDS011;3137;51.550;7.060;2022-10-15T13:29:27;1.67;;;1.67;;
6207;SDS011;3137;51.550;7.060;2022-10-15T13:31:54;5.87;;;1.77;;
6207;SDS011;3137;51.550;7.060;2022-10-15T13:34:29;1.30;;;1.30;;
6207;SDS011;3137;51.550;7.060;2022-10-15T13:37:00;2.40;;;2.27;;
6207;SDS011;3137;51.550;7.060;2022-10-15T13:39:31;1.43;;;1.43;;
6207;SDS011;3137;51.550;7.060;2022-10-15T13:42:05;1.70;;;1.70;;
6207;SDS011;3137;51.550;7.060;2022-10-15T13:44:38;1.23;;;1.23;;
6207;SDS011;3137;51.550;7.060;2022-10-15T13:49:50;1.40;;;1.40;;
6207;SDS011;3137;51.550;7.060;2022-10-15T13:52:16;1.73;;;1.73;;
6207;SDS011;3137;51.550;7.060;2022-10-15T13:54:43;1.90;;;1.43;;
6207;SDS011;3137;51.550;7.060;2022-10-15T13:57:13;1.27;;;1.27;;
6207;SDS011;3137;51.550;7.060;2022-10-15T13:59:43;1.50;;;1.50;;
6207;SDS011;3137;51.550;7.060;2022-10-15T14:02:11;1.60;;;1.30;;
6207;SDS011;3137;51.550;7.060;2022-10-15T14:04:37;1.40;;;1.33;;
6207;SDS011;3137;51.550;7.060;2022-10-15T14:07:22;2.10;;;1.37;;
6207;SDS011;3137;51.550;7.060;2022-10-15T14:09:53;3.87;;;1.03;;
6207;SDS011;3137;51.550;7.060;2022-10-15T14:12:19;1.47;;;1.47;;
6207;SDS011;3137;51.550;7.060;2022-10-15T14:14:46;1.30;;;1.30;;
6207;SDS011;3137;51.550;7.060;2022-10-15T14:17:24;1.23;;;1.23;;
6207;SDS011;3137;51.550;7.060;2022-10-15T14:19:59;1.30;;;1.30;;
6207;SDS011;3137;51.550;7.060;2022-10-15T14:22:49;1.30;;;1.30;;
6207;SDS011;3137;51.550;7.060;2022-10-15T14:25:19;4.43;;;1.80;;
6207;SDS011;3137;51.550;7.060;2022-10-15T14:27:48;2.50;;;1.67;;
6207;SDS011;3137;51.550;7.060;2022-10-15T14:30:19;5.33;;;1.77;;
6207;SDS011;3137;51.550;7.060;2022-10-15T14:32:51;1.60;;;1.60;;
6207;SDS011;3137;51.550;7.060;2022-10-15T14:35:36;1.67;;;1.67;;
6207;SDS011;3137;51.550;7.060;2022-10-15T14:38:03;2.10;;;2.10;;
6207;SDS011;3137;51.550;7.060;2022-10-15T14:40:40;2.47;;;1.87;;
6207;SDS011;3137;51.550;7.060;2022-10-15T14:43:21;1.83;;;1.83;;
6207;SDS011;3137;51.550;7.060;2022-10-15T14:45:58;2.20;;;2.00;;
6207;SDS011;3137;51.550;7.060;2022-10-15T14:50:57;2.40;;;2.03;;
6207;SDS011;3137;51.550;7.060;2022-10-15T14:53:26;2.40;;;2.40;;
6207;SDS011;3137;51.550;7.060;2022-10-15T14:55:57;2.40;;;2.40;;
6207;SDS011;3137;51.550;7.060;2022-10-15T14:58:24;3.20;;;3.00;;
6207;SDS011;3137;51.550;7.060;2022-10-15T15:00:59;3.03;;;1.63;;
6207;SDS011;3137;51.550;7.060;2022-10-15T15:03:29;1.57;;;1.47;;
6207;SDS011;3137;51.550;7.060;2022-10-15T15:05:56;1.77;;;1.77;;
6207;SDS011;3137;51.550;7.060;2022-10-15T15:08:24;2.37;;;1.80;;
6207;SDS011;3137;51.550;7.060;2022-10-15T15:10:51;3.13;;;2.83;;
6207;SDS011;3137;51.550;7.060;2022-10-15T15:13:25;2.57;;;2.50;;
6207;SDS011;3137;51.550;7.060;2022-10-15T15:15:53;2.93;;;2.83;;
6207;SDS011;3137;51.550;7.060;2022-10-15T15:18:19;3.03;;;2.40;;
6207;SDS011;3137;51.550;7.060;2022-10-15T15:20:46;2.07;;;2.07;;
6207;SDS011;3137;51.550;7.060;2022-10-15T15:23:21;2.70;;;2.70;;
6207;SDS011;3137;51.550;7.060;2022-10-15T15:25:50;2.10;;;2.00;;
6207;SDS011;3137;51.550;7.060;2022-10-15T15:28:19;6.03;;;2.30;;
6207;SDS011;3137;51.550;7.060;2022-10-15T15:30:54;3.60;;;3.50;;
6207;SDS011;3137;51.550;7.060;2022-10-15T15:33:22;1.93;;;1.93;;
6207;SDS011;3137;51.550;7.060;2022-10-15T15:35:49;2.17;;;2.17;;
6207;SDS011;3137;51.550;7.060;2022-10-15T15:38:17;2.37;;;2.37;;
6207;SDS011;3137;51.550;7.060;2022-10-15T15:40:50;2.47;;;2.47;;
6207;SDS011;3137;51.550;7.060;2022-10-15T15:43:17;2.20;;;2.20;;
6207;SDS011;3137;51.550;7.060;2022-10-15T15:45:45;2.27;;;2.27;;
6207;SDS011;3137;51.550;7.060;2022-10-15T15:48:11;2.20;;;2.20;;
6207;SDS011;3137;51.550;7.060;2022-10-15T15:50:38;3.00;;;2.80;;
6207;SDS011;3137;51.550;7.060;2022-10-15T15:53:04;2.70;;;2.70;;
6207;SDS011;3137;51.550;7.060;2022-10-15T15:55:30;3.40;;;3.20;;
6207;SDS011;3137;51.550;7.060;2022-10-15T15:57:57;3.27;;;3.27;;
6207;SDS011;3137;51.550;7.060;2022-10-15T16:00:23;3.00;;;2.80;;
6207;SDS011;3137;51.550;7.060;2022-10-15T16:02:49;3.33;;;3.23;;
6207;SDS011;3137;51.550;7.060;2022-10-15T16:05:22;3.00;;;3.00;;
6207;SDS011;3137;51.550;7.060;2022-10-15T16:07:49;5.50;;;3.50;;
6207;SDS011;3137;51.550;7.060;2022-10-15T16:10:16;3.97;;;3.87;;
6207;SDS011;3137;51.550;7.060;2022-10-15T16:12:42;3.63;;;3.13;;
6207;SDS011;3137;51.550;7.060;2022-10-15T16:15:09;3.10;;;3.00;;
6207;SDS011;3137;51.550;7.060;2022-10-15T16:17:40;3.73;;;3.43;;
6207;SDS011;3137;51.550;7.060;2022-10-15T16:20:06;4.77;;;4.40;;
6207;SDS011;3137;51.550;7.060;2022-10-15T16:22:33;4.27;;;4.10;;
6207;SDS011;3137;51.550;7.060;2022-10-15T16:24:59;3.63;;;3.63;;
6207;SDS011;3137;51.550;7.060;2022-10-15T16:27:26;3.87;;;3.67;;
6207;SDS011;3137;51.550;7.060;2022-10-15T16:29:53;3.07;;;3.00;;
6207;SDS011;3137;51.550;7.060;2022-10-15T16:32:19;3.30;;;3.10;;
6207;SDS011;3137;51.550;7.060;2022-10-15T16:34:45;3.67;;;3.57;;
6207;SDS011;3137;51.550;7.060;2022-10-15T16:37:12;7.77;;;4.40;;
6207;SDS011;3137;51.550;7.060;2022-10-15T16:39:38;4.87;;;4.57;;
6207;SDS011;3137;51.550;7.060;2022-10-15T16:42:04;3.67;;;3.63;;
6207;SDS011;3137;51.550;7.060;2022-10-15T16:44:31;4.10;;;4.07;;
6207;SDS011;3137;51.550;7.060;2022-10-15T16:46:57;3.30;;;3.30;;
6207;SDS011;3137;51.550;7.060;2022-10-15T16:49:24;3.10;;;3.10;;
6207;SDS011;3137;51.550;7.060;2022-10-15T16:51:51;2.37;;;2.30;;
6207;SDS011;3137;51.550;7.060;2022-10-15T16:54:17;3.00;;;2.73;;
6207;SDS011;3137;51.550;7.060;2022-10-15T16:56:45;2.57;;;2.47;;
6207;SDS011;3137;51.550;7.060;2022-10-15T16:59:18;2.17;;;2.17;;
6207;SDS011;3137;51.550;7.060;2022-10-15T17:01:45;2.13;;;2.03;;